Time;durP1;ratioP1;P1;durP2;ratioP2;P2;SDS_P1;SDS_P2;PMS_P1;PMS_P2;Temp;Humidity;BMP_temperature;BMP_pressure;BME280_temperature;BME280_humidity;BME280_pressure;Samples;Min_cycle;Max_cycle;Signal;HPM_P1;HPM_P2
2022/02/08 00:01:49;;;;;;;;;;;22.00;31.60;;;;;;475458;250;2251;-39
2022/02/08 00:03:43;;;;;;;;;;;22.00;31.70;;;;;;475282;250;2150;-39
2022/02/08 00:05:49;;;;;;;;;;;22.00;31.70;;;;;;475756;251;1208;-39
2022/02/08 00:07:49;;;;;;;;;;;22.00;31.60;;;;;;475413;250;2422;-39
2022/02/08 00:09:47;;;;;;;;;;;22.00;31.60;;;;;;475524;250;2537;-39
2022/02/08 00:11:48;;;;;;;;;;;22.00;31.60;;;;;;475725;251;1280;-39
2022/02/08 00:13:50;;;;;;;;;;;22.00;31.60;;;;;;476090;250;1057;-39
2022/02/08 00:15:51;;;;;;;;;;;22.00;31.60;;;;;;475960;250;1227;-39
2022/02/08 00:17:52;;;;;;;;;;;22.00;31.60;;;;;;475882;250;1746;-39
2022/02/08 00:19:54;;;;;;;;;;;22.00;31.50;;;;;;475735;251;1152;-39
2022/02/08 00:21:55;;;;;;;;;;;22.00;31.50;;;;;;475798;250;1230;-39
2022/02/08 00:23:56;;;;;;;;;;;22.00;31.60;;;;;;475831;250;1221;-39
2022/02/08 00:25:58;;;;;;;;;;;22.00;31.60;;;;;;475949;250;1265;-39
2022/02/08 00:27:59;;;;;;;;;;;22.00;31.60;;;;;;475699;251;2149;-39
2022/02/08 00:30:00;;;;;;;;;;;22.00;31.60;;;;;;475871;250;1241;-39
2022/02/08 00:32:02;;;;;;;;;;;22.00;31.60;;;;;;475570;251;1306;-39
2022/02/08 00:34:03;;;;;;;;;;;22.00;31.60;;;;;;476043;250;1041;-39
2022/02/08 00:36:05;;;;;;;;;;;22.00;31.50;;;;;;475596;251;1338;-39
2022/02/08 00:38:06;;;;;;;;;;;22.00;31.60;;;;;;475853;250;1169;-39
2022/02/08 00:40:07;;;;;;;;;;;22.00;31.60;;;;;;476164;250;1071;-39
2022/02/08 00:42:11;;;;;;;;;;;22.00;31.60;;;;;;475678;251;1173;-39
2022/02/08 00:44:14;;;;;;;;;;;22.00;31.60;;;;;;476037;250;2137;-39
2022/02/08 00:46:15;;;;;;;;;;;22.00;31.60;;;;;;475587;250;2241;-39
2022/02/08 00:48:17;;;;;;;;;;;22.00;31.50;;;;;;475726;250;2128;-39
2022/02/08 00:50:14;;;;;;;;;;;22.00;31.60;;;;;;475484;250;2184;-39
2022/02/08 00:52:15;;;;;;;;;;;22.00;31.60;;;;;;475801;250;1207;-39
2022/02/08 00:54:17;;;;;;;;;;;22.00;31.60;;;;;;475760;251;1138;-39
2022/02/08 00:56:18;;;;;;;;;;;22.00;31.70;;;;;;475950;250;1361;-39
2022/02/08 00:58:19;;;;;;;;;;;22.00;31.60;;;;;;476130;250;1063;-39
2022/02/08 01:00:22;;;;;;;;;;;22.00;31.70;;;;;;476167;250;1156;-39
2022/02/08 01:02:22;;;;;;;;;;;22.00;31.70;;;;;;475639;250;1724;-39
2022/02/08 01:04:25;;;;;;;;;;;22.00;31.70;;;;;;475706;251;1173;-39
2022/02/08 01:06:25;;;;;;;;;;;22.00;31.60;;;;;;475673;247;1566;-39
2022/02/08 01:08:30;;;;;;;;;;;22.00;31.60;;;;;;475819;250;2196;-39
2022/02/08 01:10:34;;;;;;;;;;;22.00;31.60;;;;;;475443;250;2395;-39
2022/02/08 01:12:29;;;;;;;;;;;22.00;31.70;;;;;;475356;250;1420;-39
2022/02/08 01:14:35;;;;;;;;;;;22.00;31.70;;;;;;475758;251;1230;-39
2022/02/08 01:16:31;;;;;;;;;;;22.00;31.70;;;;;;475553;246;2179;-39
2022/02/08 01:18:37;;;;;;;;;;;22.00;31.70;;;;;;476135;250;1279;-39
2022/02/08 01:20:36;;;;;;;;;;;22.00;31.70;;;;;;475470;250;2214;-39
2022/02/08 01:22:38;;;;;;;;;;;22.00;31.70;;;;;;476017;250;2167;-39
2022/02/08 01:24:37;;;;;;;;;;;22.00;31.70;;;;;;475603;250;2217;-39
2022/02/08 01:26:46;;;;;;;;;;;21.90;31.70;;;;;;476088;250;1555;-39
2022/02/08 01:28:47;;;;;;;;;;;22.00;31.70;;;;;;475265;250;2228;-39
2022/02/08 01:30:47;;;;;;;;;;;22.00;31.70;;;;;;475322;246;2043;-39
2022/02/08 01:33:01;;;;;;;;;;;22.00;31.70;;;;;;475592;250;2097;-39
2022/02/08 01:35:03;;;;;;;;;;;22.00;31.70;;;;;;475514;250;2186;-39
2022/02/08 01:37:21;;;;;;;;;;;22.00;31.70;;;;;;475663;250;2247;-39
2022/02/08 01:39:20;;;;;;;;;;;22.00;31.70;;;;;;474995;250;1870;-39
2022/02/08 01:41:30;;;;;;;;;;;22.00;31.70;;;;;;475786;250;2177;-39
2022/02/08 01:43:42;;;;;;;;;;;22.00;31.70;;;;;;475125;250;1257;-39
2022/02/08 01:45:45;;;;;;;;;;;22.00;31.70;;;;;;475152;250;1569;-39
2022/02/08 01:47:48;;;;;;;;;;;22.00;31.70;;;;;;475219;250;2260;-39
2022/02/08 01:50:07;;;;;;;;;;;22.00;31.70;;;;;;475566;250;2129;-39
2022/02/08 01:52:01;;;;;;;;;;;22.00;31.80;;;;;;475308;250;2235;-39
2022/02/08 01:54:02;;;;;;;;;;;21.90;31.70;;;;;;475867;250;1230;-39
2022/02/08 01:56:03;;;;;;;;;;;21.90;31.70;;;;;;475694;250;1294;-39
2022/02/08 01:58:06;;;;;;;;;;;22.00;31.80;;;;;;475648;251;1187;-39
2022/02/08 02:00:06;;;;;;;;;;;22.00;31.80;;;;;;475672;250;1863;-39
2022/02/08 02:02:07;;;;;;;;;;;22.00;31.70;;;;;;475797;250;1173;-39
2022/02/08 02:04:09;;;;;;;;;;;22.00;31.80;;;;;;475885;250;1090;-39
2022/02/08 02:06:10;;;;;;;;;;;21.90;31.80;;;;;;475655;251;1825;-39
2022/02/08 02:08:11;;;;;;;;;;;22.00;31.80;;;;;;475853;250;2142;-39
2022/02/08 02:10:13;;;;;;;;;;;22.00;31.80;;;;;;475918;250;1176;-39
2022/02/08 02:12:14;;;;;;;;;;;22.00;31.70;;;;;;475925;250;1241;-39
2022/02/08 02:14:15;;;;;;;;;;;22.00;31.80;;;;;;475740;250;1054;-39
2022/02/08 02:16:21;;;;;;;;;;;22.00;31.70;;;;;;475731;250;1359;-39
2022/02/08 02:18:18;;;;;;;;;;;22.00;31.70;;;;;;475469;250;2232;-39
2022/02/08 02:20:19;;;;;;;;;;;22.00;31.70;;;;;;475781;250;1073;-39
2022/02/08 02:22:21;;;;;;;;;;;22.00;31.80;;;;;;475696;251;1201;-39
2022/02/08 02:24:22;;;;;;;;;;;22.00;31.80;;;;;;475943;250;1156;-39
2022/02/08 02:26:23;;;;;;;;;;;22.00;31.70;;;;;;475845;250;1718;-39
2022/02/08 02:28:25;;;;;;;;;;;22.00;31.80;;;;;;475724;251;2196;-39
2022/02/08 02:30:26;;;;;;;;;;;22.00;31.80;;;;;;475920;250;2174;-39
2022/02/08 02:32:27;;;;;;;;;;;22.00;31.80;;;;;;475684;251;1224;-39
2022/02/08 02:34:28;;;;;;;;;;;22.00;31.80;;;;;;476041;250;1082;-39
2022/02/08 02:36:30;;;;;;;;;;;22.00;31.70;;;;;;475718;251;1177;-39
2022/02/08 02:38:31;;;;;;;;;;;22.00;31.80;;;;;;476189;250;1226;-39
2022/02/08 02:40:32;;;;;;;;;;;21.90;31.80;;;;;;475899;250;1201;-39
2022/02/08 02:42:34;;;;;;;;;;;22.00;31.80;;;;;;476067;250;1234;-39
2022/02/08 02:44:35;;;;;;;;;;;21.90;31.80;;;;;;475924;250;1018;-39
2022/02/08 02:46:36;;;;;;;;;;;21.90;31.80;;;;;;475934;247;1152;-39
2022/02/08 02:48:38;;;;;;;;;;;21.90;31.90;;;;;;476033;250;2195;-39
2022/02/08 02:50:39;;;;;;;;;;;21.90;31.90;;;;;;476139;250;1001;-39
2022/02/08 02:52:40;;;;;;;;;;;21.90;31.80;;;;;;475979;250;1140;-39
2022/02/08 02:54:42;;;;;;;;;;;21.90;31.80;;;;;;476141;250;1133;-39
2022/02/08 02:56:43;;;;;;;;;;;21.90;31.80;;;;;;475593;251;1356;-39
2022/02/08 02:58:44;;;;;;;;;;;21.90;31.80;;;;;;476045;250;1035;-39
2022/02/08 03:00:51;;;;;;;;;;;21.90;31.90;;;;;;476159;250;1460;-39
2022/02/08 03:02:52;;;;;;;;;;;21.90;31.80;;;;;;475351;250;1397;-39
2022/02/08 03:04:55;;;;;;;;;;;21.90;31.80;;;;;;475460;250;2270;-39
2022/02/08 03:18:35;;;;;;;;;;;21.90;31.80;;;;;;475690;250;1249;-39
2022/02/08 03:20:32;;;;;;;;;;;21.90;31.90;;;;;;475502;250;2094;-39
2022/02/08 03:22:34;;;;;;;;;;;21.90;31.80;;;;;;475994;250;1179;-39
2022/02/08 03:24:35;;;;;;;;;;;21.90;31.80;;;;;;476195;250;1083;-39
2022/02/08 03:26:36;;;;;;;;;;;21.90;31.80;;;;;;475715;251;1234;-39
2022/02/08 03:28:38;;;;;;;;;;;22.00;31.90;;;;;;475769;250;2133;-39
2022/02/08 03:30:39;;;;;;;;;;;21.90;31.80;;;;;;475729;251;1225;-39
2022/02/08 03:32:40;;;;;;;;;;;22.00;31.80;;;;;;475793;250;1123;-39
2022/02/08 03:34:42;;;;;;;;;;;21.90;31.80;;;;;;475892;250;1018;-39
2022/02/08 03:36:43;;;;;;;;;;;22.00;31.90;;;;;;475595;251;1258;-39
2022/02/08 03:38:48;;;;;;;;;;;21.90;31.80;;;;;;476028;250;1316;-39
2022/02/08 03:40:50;;;;;;;;;;;21.90;31.80;;;;;;475645;250;2179;-39
2022/02/08 03:42:58;;;;;;;;;;;21.90;31.80;;;;;;475373;250;2306;-39
2022/02/08 03:44:50;;;;;;;;;;;21.90;31.80;;;;;;475336;250;2392;-39
2022/02/08 03:46:51;;;;;;;;;;;22.00;31.90;;;;;;475771;250;1504;-39
2022/02/08 03:48:51;;;;;;;;;;;21.90;31.80;;;;;;475972;250;2451;-39
2022/02/08 03:50:54;;;;;;;;;;;21.90;31.80;;;;;;475652;247;1217;-39
2022/02/08 03:52:53;;;;;;;;;;;21.90;31.90;;;;;;475548;250;2126;-39
2022/02/08 03:54:55;;;;;;;;;;;21.90;31.80;;;;;;476169;250;1070;-39
2022/02/08 03:56:56;;;;;;;;;;;21.90;31.90;;;;;;467849;251;1212;-39
2022/02/08 03:59:00;;;;;;;;;;;21.90;31.90;;;;;;467599;254;1588;-39
2022/02/08 04:01:25;;;;;;;;;;;21.90;31.80;;;;;;467434;254;2110;-39
2022/02/08 04:03:05;;;;;;;;;;;21.90;31.80;;;;;;466237;255;1956;-39
2022/02/08 04:05:13;;;;;;;;;;;21.90;31.90;;;;;;467478;254;1043;-39
2022/02/08 04:07:13;;;;;;;;;;;21.90;31.80;;;;;;467105;254;2304;-39
2022/02/08 04:09:10;;;;;;;;;;;22.00;31.90;;;;;;467579;254;2209;-39
2022/02/08 04:11:13;;;;;;;;;;;21.90;31.80;;;;;;467442;255;1232;-39
2022/02/08 04:13:17;;;;;;;;;;;21.90;31.80;;;;;;467818;254;2034;-39
2022/02/08 04:15:29;;;;;;;;;;;21.90;31.80;;;;;;467656;254;2377;-39
2022/02/08 04:17:31;;;;;;;;;;;21.90;31.80;;;;;;466986;254;2162;-39
2022/02/08 04:19:30;;;;;;;;;;;21.90;31.80;;;;;;467132;254;2348;-39
2022/02/08 04:33:14;;;;;;;;;;;22.00;31.90;;;;;;467469;254;1237;-39
2022/02/08 04:35:36;;;;;;;;;;;22.00;31.80;;;;;;467350;254;1801;-39
2022/02/08 04:37:58;;;;;;;;;;;21.90;31.80;;;;;;466556;254;1567;-39
2022/02/08 04:39:57;;;;;;;;;;;21.90;31.80;;;;;;466297;255;2003;-39
2022/02/08 04:42:00;;;;;;;;;;;21.90;31.80;;;;;;466974;254;1588;-39
2022/02/08 04:43:57;;;;;;;;;;;22.00;31.80;;;;;;466844;254;2367;-39
2022/02/08 04:45:56;;;;;;;;;;;21.90;31.80;;;;;;467399;254;2083;-39
2022/02/08 04:48:04;;;;;;;;;;;21.90;31.80;;;;;;467583;254;2087;-39
2022/02/08 04:50:01;;;;;;;;;;;22.00;31.80;;;;;;467347;254;2126;-39
2022/02/08 04:52:05;;;;;;;;;;;22.00;31.90;;;;;;467497;254;1293;-39
2022/02/08 04:54:11;;;;;;;;;;;21.90;31.80;;;;;;467282;254;1684;-39
2022/02/08 04:56:16;;;;;;;;;;;22.00;31.80;;;;;;468625;251;2151;-39
2022/02/08 04:58:19;;;;;;;;;;;21.90;31.80;;;;;;475162;250;2053;-39
2022/02/08 05:00:22;;;;;;;;;;;21.90;31.80;;;;;;475709;250;2198;-39
2022/02/08 05:26:30;;;;;;;;;;;21.90;31.90;;;;;;475242;250;2129;-39
2022/02/08 05:35:17;;;;;;;;;;;22.00;31.80;;;;;;475830;249;1353;-39
2022/02/08 05:41:44;;;;;;;;;;;22.00;31.80;;;;;;475581;250;1201;-39
2022/02/08 05:46:28;;;;;;;;;;;22.00;31.80;;;;;;468246;254;1195;-39
2022/02/08 05:48:09;;;;;;;;;;;22.00;31.80;;;;;;474308;250;1720;-39
2022/02/08 05:50:09;;;;;;;;;;;22.00;31.80;;;;;;475315;250;2137;-39
2022/02/08 05:54:35;;;;;;;;;;;21.90;31.80;;;;;;475532;251;1064;-39
2022/02/08 05:56:36;;;;;;;;;;;22.00;31.80;;;;;;474823;250;1242;-39
2022/02/08 05:58:40;;;;;;;;;;;22.00;31.80;;;;;;467221;254;1162;-39
2022/02/08 06:00:39;;;;;;;;;;;22.00;31.70;;;;;;467149;253;2007;-39
2022/02/08 06:02:40;;;;;;;;;;;22.00;31.80;;;;;;467135;254;2366;-39
2022/02/08 06:04:43;;;;;;;;;;;22.00;31.80;;;;;;467278;254;1177;-39
2022/02/08 06:06:43;;;;;;;;;;;22.00;31.70;;;;;;467280;251;2014;-39
2022/02/08 06:08:44;;;;;;;;;;;22.00;31.70;;;;;;467240;255;1143;-39
2022/02/08 06:10:49;;;;;;;;;;;22.00;31.70;;;;;;467300;254;2205;-39
2022/02/08 06:12:48;;;;;;;;;;;22.00;31.70;;;;;;467261;254;1668;-39
2022/02/08 06:14:55;;;;;;;;;;;22.00;31.70;;;;;;467410;254;2252;-39
2022/02/08 06:16:50;;;;;;;;;;;22.00;31.70;;;;;;466612;254;2595;-39
2022/02/08 06:18:51;;;;;;;;;;;22.00;31.70;;;;;;467257;254;1084;-39
2022/02/08 06:20:53;;;;;;;;;;;22.00;31.70;;;;;;467246;254;1234;-39
2022/02/08 06:22:54;;;;;;;;;;;22.00;31.70;;;;;;467200;255;1133;-39
2022/02/08 06:24:55;;;;;;;;;;;22.00;31.70;;;;;;467320;254;1094;-39
2022/02/08 06:26:57;;;;;;;;;;;22.00;31.60;;;;;;467072;253;1191;-39
2022/02/08 06:29:07;;;;;;;;;;;22.00;31.70;;;;;;467204;254;1176;-39
2022/02/08 06:31:02;;;;;;;;;;;22.00;31.70;;;;;;466810;254;2200;-39
2022/02/08 06:33:03;;;;;;;;;;;22.10;31.70;;;;;;467277;254;1386;-39
2022/02/08 06:35:09;;;;;;;;;;;22.00;31.60;;;;;;467181;255;1052;-39
2022/02/08 06:37:11;;;;;;;;;;;22.10;31.70;;;;;;466834;254;2144;-39
2022/02/08 06:39:07;;;;;;;;;;;22.00;31.70;;;;;;466819;254;2151;-39
2022/02/08 06:41:10;;;;;;;;;;;22.00;31.70;;;;;;467049;255;1264;-39
2022/02/08 06:43:10;;;;;;;;;;;22.10;31.70;;;;;;467031;255;2574;-39
2022/02/08 06:45:11;;;;;;;;;;;22.10;31.70;;;;;;467247;254;1066;-39
2022/02/08 06:47:13;;;;;;;;;;;22.00;31.60;;;;;;467005;255;1168;-39
2022/02/08 06:49:14;;;;;;;;;;;22.00;31.70;;;;;;467149;254;1152;-39
2022/02/08 06:51:15;;;;;;;;;;;22.00;31.70;;;;;;467070;255;2197;-39
2022/02/08 06:53:17;;;;;;;;;;;22.00;31.60;;;;;;467113;254;1121;-39
2022/02/08 06:55:18;;;;;;;;;;;22.00;31.60;;;;;;467182;254;1257;-39
2022/02/08 06:57:19;;;;;;;;;;;22.00;31.60;;;;;;467332;251;1207;-39
2022/02/08 06:59:21;;;;;;;;;;;22.00;31.70;;;;;;475367;250;1197;-39
2022/02/08 07:01:27;;;;;;;;;;;22.00;31.60;;;;;;475269;250;1304;-39
2022/02/08 07:03:23;;;;;;;;;;;22.00;31.70;;;;;;474943;250;2138;-39
2022/02/08 07:05:25;;;;;;;;;;;22.00;31.60;;;;;;475443;250;1222;-39
2022/02/08 07:07:26;;;;;;;;;;;22.00;31.60;;;;;;475219;250;1229;-39
2022/02/08 07:09:28;;;;;;;;;;;22.00;31.60;;;;;;475302;251;1114;-39
2022/02/08 07:11:29;;;;;;;;;;;22.00;31.60;;;;;;475260;247;2128;-39
2022/02/08 07:13:30;;;;;;;;;;;22.00;31.70;;;;;;475277;250;1404;-39
2022/02/08 07:15:32;;;;;;;;;;;22.00;31.60;;;;;;475206;250;1199;-39
2022/02/08 07:17:33;;;;;;;;;;;22.00;31.60;;;;;;475103;250;1199;-39
2022/02/08 07:19:34;;;;;;;;;;;22.00;31.60;;;;;;475186;250;1400;-40
2022/02/08 07:21:36;;;;;;;;;;;22.00;31.60;;;;;;475190;247;1296;-39
2022/02/08 07:23:37;;;;;;;;;;;22.00;31.60;;;;;;475095;251;1174;-39
2022/02/08 07:25:38;;;;;;;;;;;22.00;31.60;;;;;;475122;250;1214;-39
2022/02/08 07:27:40;;;;;;;;;;;22.00;31.50;;;;;;475079;250;1221;-39
2022/02/08 07:29:49;;;;;;;;;;;22.00;31.60;;;;;;475027;251;2160;-39
2022/02/08 07:31:50;;;;;;;;;;;22.00;31.50;;;;;;474374;250;2232;-39
2022/02/08 07:33:50;;;;;;;;;;;22.00;31.60;;;;;;474576;250;2370;-39
2022/02/08 07:35:52;;;;;;;;;;;22.00;31.60;;;;;;474558;250;1405;-39
2022/02/08 07:37:52;;;;;;;;;;;22.00;31.50;;;;;;474909;250;1983;-40
2022/02/08 07:39:53;;;;;;;;;;;22.00;31.40;;;;;;474831;250;2080;-39
2022/02/08 07:41:52;;;;;;;;;;;22.10;31.40;;;;;;475048;250;2061;-39
2022/02/08 07:43:54;;;;;;;;;;;22.00;31.40;;;;;;475126;251;1248;-40
2022/02/08 07:45:56;;;;;;;;;;;22.00;31.40;;;;;;475155;250;1328;-39
2022/02/08 07:47:57;;;;;;;;;;;22.00;31.40;;;;;;475103;251;1340;-39
2022/02/08 07:49:58;;;;;;;;;;;22.00;31.40;;;;;;475122;251;2192;-39
2022/02/08 07:51:59;;;;;;;;;;;22.00;31.40;;;;;;475076;250;1178;-39
2022/02/08 07:54:01;;;;;;;;;;;22.00;31.30;;;;;;475157;251;1132;-39
2022/02/08 07:56:02;;;;;;;;;;;22.10;31.30;;;;;;474966;251;1286;-39
2022/02/08 07:58:03;;;;;;;;;;;22.10;31.30;;;;;;474763;250;1272;-39
2022/02/08 08:00:04;;;;;;;;;;;22.10;31.20;;;;;;474865;250;1197;-39
2022/02/08 08:02:06;;;;;;;;;;;22.00;31.20;;;;;;474889;251;1326;-39
2022/02/08 08:04:08;;;;;;;;;;;22.00;31.10;;;;;;475005;250;1159;-40
2022/02/08 08:06:09;;;;;;;;;;;22.10;31.20;;;;;;474885;251;1419;-39
2022/02/08 08:08:12;;;;;;;;;;;22.00;31.10;;;;;;474960;250;1145;-39
2022/02/08 08:10:17;;;;;;;;;;;22.00;31.10;;;;;;474804;250;2184;-39
2022/02/08 08:12:14;;;;;;;;;;;22.00;31.10;;;;;;474527;250;1984;-39
2022/02/08 08:14:16;;;;;;;;;;;22.00;31.10;;;;;;474881;250;1726;-39
2022/02/08 08:16:22;;;;;;;;;;;22.00;31.10;;;;;;474726;250;2113;-39
2022/02/08 08:18:34;;;;;;;;;;;22.10;31.20;;;;;;474905;250;1844;-39
2022/02/08 08:20:21;;;;;;;;;;;22.10;31.10;;;;;;474008;250;1424;-39
2022/02/08 08:22:22;;;;;;;;;;;22.10;31.10;;;;;;475018;251;1183;-39
2022/02/08 08:24:24;;;;;;;;;;;22.10;31.00;;;;;;475094;250;1187;-39
2022/02/08 08:26:25;;;;;;;;;;;22.10;31.00;;;;;;475067;250;1312;-39
2022/02/08 08:28:26;;;;;;;;;;;22.10;31.00;;;;;;474885;251;1075;-39
2022/02/08 08:30:28;;;;;;;;;;;22.10;31.00;;;;;;474771;250;2202;-39
2022/02/08 08:32:29;;;;;;;;;;;22.00;31.00;;;;;;474965;250;1255;-39
2022/02/08 08:34:31;;;;;;;;;;;22.00;31.00;;;;;;475069;250;2035;-39
2022/02/08 08:36:32;;;;;;;;;;;22.00;31.00;;;;;;474926;250;1359;-39
2022/02/08 08:38:34;;;;;;;;;;;22.10;31.00;;;;;;474989;250;1123;-39
2022/02/08 08:40:48;;;;;;;;;;;22.10;30.90;;;;;;474855;251;1058;-39
2022/02/08 08:42:52;;;;;;;;;;;22.10;30.90;;;;;;474352;250;2014;-39
2022/02/08 08:45:14;;;;;;;;;;;22.00;30.90;;;;;;474261;250;2187;-39
2022/02/08 08:49:33;;;;;;;;;;;22.10;30.80;;;;;;474827;249;1221;-39
2022/02/08 08:51:34;;;;;;;;;;;22.00;30.80;;;;;;474478;250;2126;-39
2022/02/08 08:53:34;;;;;;;;;;;22.10;30.90;;;;;;474793;250;2337;-39
2022/02/08 08:55:34;;;;;;;;;;;22.10;30.80;;;;;;474846;250;2055;-39
2022/02/08 08:57:36;;;;;;;;;;;22.10;30.80;;;;;;474886;250;1372;-39
2022/02/08 08:59:37;;;;;;;;;;;22.10;30.80;;;;;;474971;250;1186;-39
2022/02/08 09:01:39;;;;;;;;;;;22.10;30.80;;;;;;475022;250;1258;-39
2022/02/08 09:03:40;;;;;;;;;;;22.10;30.70;;;;;;475021;250;1105;-39
2022/02/08 09:05:41;;;;;;;;;;;22.10;30.80;;;;;;474905;250;1248;-39
2022/02/08 09:07:43;;;;;;;;;;;22.10;30.70;;;;;;474825;251;1504;-39
2022/02/08 09:09:47;;;;;;;;;;;22.10;30.70;;;;;;474827;251;2099;-39
2022/02/08 09:11:55;;;;;;;;;;;22.10;30.60;;;;;;474505;250;2141;-39
2022/02/08 09:13:59;;;;;;;;;;;22.10;30.70;;;;;;474335;250;2171;-39
2022/02/08 09:16:05;;;;;;;;;;;22.10;30.70;;;;;;474311;250;1487;-39
2022/02/08 09:23:41;;;;;;;;;;;22.10;30.60;;;;;;475011;251;1160;-39
2022/02/08 09:25:50;;;;;;;;;;;22.10;30.60;;;;;;474076;250;2086;-39
2022/02/08 09:27:55;;;;;;;;;;;22.10;30.60;;;;;;474549;250;2022;-39
2022/02/08 09:29:51;;;;;;;;;;;22.00;30.50;;;;;;474364;250;1531;-39
2022/02/08 09:31:59;;;;;;;;;;;22.10;30.50;;;;;;474892;250;2133;-37
2022/02/08 09:33:52;;;;;;;;;;;22.10;30.50;;;;;;474750;250;2196;-39
2022/02/08 09:35:54;;;;;;;;;;;22.10;30.40;;;;;;475037;250;1250;-39
2022/02/08 09:37:55;;;;;;;;;;;22.10;30.40;;;;;;475321;250;1177;-39
2022/02/08 09:39:56;;;;;;;;;;;22.10;30.50;;;;;;475022;251;1207;-39
2022/02/08 09:41:58;;;;;;;;;;;22.10;30.50;;;;;;474992;250;1217;-39
2022/02/08 09:43:59;;;;;;;;;;;22.10;30.50;;;;;;475006;250;1145;-39
2022/02/08 09:46:00;;;;;;;;;;;22.10;30.50;;;;;;474931;250;1266;-39
2022/02/08 09:48:08;;;;;;;;;;;22.00;30.50;;;;;;475010;251;1139;-39
2022/02/08 09:50:09;;;;;;;;;;;22.10;30.40;;;;;;474643;250;2006;-39
2022/02/08 09:52:05;;;;;;;;;;;22.10;30.40;;;;;;475125;250;2223;-39
2022/02/08 09:54:07;;;;;;;;;;;22.10;30.40;;;;;;475035;250;1076;-39
2022/02/08 09:56:08;;;;;;;;;;;22.10;30.30;;;;;;474884;250;1233;-39
2022/02/08 09:58:09;;;;;;;;;;;22.10;30.30;;;;;;474933;251;1117;-39
2022/02/08 10:00:11;;;;;;;;;;;22.10;30.30;;;;;;474881;250;1811;-39
2022/02/08 10:02:12;;;;;;;;;;;22.10;30.20;;;;;;475056;250;1315;-39
2022/02/08 10:04:13;;;;;;;;;;;22.10;30.30;;;;;;475702;250;943;-39
2022/02/08 10:06:15;;;;;;;;;;;22.10;30.30;;;;;;475214;251;1163;-39
2022/02/08 10:08:16;;;;;;;;;;;22.00;30.30;;;;;;475736;250;1454;-39
2022/02/08 10:10:17;;;;;;;;;;;22.00;30.40;;;;;;475375;251;867;-39
2022/02/08 10:12:22;;;;;;;;;;;22.00;30.40;;;;;;475246;251;2216;-39
2022/02/08 10:14:24;;;;;;;;;;;21.90;30.40;;;;;;475569;250;2185;-39
2022/02/08 10:19:10;;;;;;;;;;;21.90;30.50;;;;;;475684;249;1061;-39
2022/02/08 10:23:22;;;;;;;;;;;21.80;30.60;;;;;;474974;250;1440;-39
2022/02/08 10:25:29;;;;;;;;;;;21.80;30.60;;;;;;475637;250;1051;-39
2022/02/08 10:27:30;;;;;;;;;;;21.70;30.70;;;;;;475242;250;2171;-39
2022/02/08 10:29:37;;;;;;;;;;;21.70;30.70;;;;;;475560;250;2081;-39
2022/02/08 10:32:01;;;;;;;;;;;21.70;30.70;;;;;;474855;250;2207;-39
2022/02/08 10:38:14;;;;;;;;;;;21.60;30.80;;;;;;475308;250;1064;-39
2022/02/08 10:40:16;;;;;;;;;;;21.60;30.80;;;;;;475723;250;873;-39
2022/02/08 10:42:17;;;;;;;;;;;21.60;30.80;;;;;;475225;251;1237;-39
2022/02/08 10:44:18;;;;;;;;;;;21.50;30.80;;;;;;475260;251;1050;-39
2022/02/08 10:46:20;;;;;;;;;;;21.60;30.80;;;;;;475551;250;1266;-39
2022/02/08 10:48:23;;;;;;;;;;;21.50;30.80;;;;;;475718;250;1010;-39
2022/02/08 10:50:23;;;;;;;;;;;21.50;30.70;;;;;;475720;250;2273;-39
2022/02/08 10:52:27;;;;;;;;;;;21.50;30.80;;;;;;475550;250;2187;-39
2022/02/08 10:54:34;;;;;;;;;;;21.60;30.80;;;;;;475166;250;2071;-39
2022/02/08 10:56:32;;;;;;;;;;;21.60;30.80;;;;;;475140;250;2149;-39
2022/02/08 10:58:33;;;;;;;;;;;21.50;30.70;;;;;;475362;250;2190;-39
2022/02/08 11:00:35;;;;;;;;;;;21.50;30.80;;;;;;475112;250;1912;-39
2022/02/08 11:02:37;;;;;;;;;;;21.50;30.70;;;;;;466566;254;2290;-37
2022/02/08 11:04:45;;;;;;;;;;;21.60;30.60;;;;;;466744;254;1826;-39
2022/02/08 11:06:39;;;;;;;;;;;21.60;30.50;;;;;;466279;254;2251;-39
2022/02/08 11:08:47;;;;;;;;;;;21.70;30.50;;;;;;466778;254;2212;-39
2022/02/08 11:11:03;;;;;;;;;;;21.70;30.40;;;;;;466397;254;2199;-39
2022/02/08 11:13:00;;;;;;;;;;;21.70;30.30;;;;;;466359;254;1825;-39
2022/02/08 11:15:05;;;;;;;;;;;21.70;30.30;;;;;;466280;254;1396;-39
2022/02/08 11:17:37;;;;;;;;;;;21.70;30.30;;;;;;466376;254;2096;-39
2022/02/08 11:19:27;;;;;;;;;;;21.80;30.20;;;;;;465888;255;1673;-39
2022/02/08 11:21:29;;;;;;;;;;;21.80;30.20;;;;;;466699;254;2392;-39
2022/02/08 11:23:32;;;;;;;;;;;21.80;30.20;;;;;;466250;254;2124;-39
2022/02/08 11:25:29;;;;;;;;;;;21.80;30.20;;;;;;466137;254;2398;-39
2022/02/08 11:27:28;;;;;;;;;;;21.80;30.20;;;;;;466419;254;2125;-39
2022/02/08 11:29:35;;;;;;;;;;;21.70;30.20;;;;;;466586;254;1276;-39
2022/02/08 11:31:36;;;;;;;;;;;21.70;30.20;;;;;;466137;254;2262;-39
2022/02/08 11:33:57;;;;;;;;;;;21.70;30.20;;;;;;466214;254;2289;-39
2022/02/08 11:43:33;;;;;;;;;;;21.70;30.30;;;;;;466665;254;1124;-39
2022/02/08 11:50:27;;;;;;;;;;;21.60;30.30;;;;;;466651;254;1119;-39
2022/02/08 11:52:31;;;;;;;;;;;21.70;30.30;;;;;;466128;254;2196;-39
2022/02/08 11:54:43;;;;;;;;;;;21.60;30.40;;;;;;466238;254;1517;-39
2022/02/08 11:57:01;;;;;;;;;;;21.50;30.40;;;;;;466090;254;2254;-39
2022/02/08 11:58:50;;;;;;;;;;;21.50;30.40;;;;;;466015;254;2102;-39
2022/02/08 12:00:57;;;;;;;;;;;21.50;30.40;;;;;;466422;254;1984;-39
2022/02/08 12:02:58;;;;;;;;;;;21.50;30.40;;;;;;465988;254;2119;-39
2022/02/08 12:05:11;;;;;;;;;;;21.50;30.40;;;;;;466247;254;2091;-39
2022/02/08 12:07:09;;;;;;;;;;;21.50;30.50;;;;;;466169;254;1538;-39
2022/02/08 12:09:12;;;;;;;;;;;21.50;30.40;;;;;;466558;254;2313;-39
2022/02/08 12:11:20;;;;;;;;;;;21.50;30.40;;;;;;466523;254;2221;-39
2022/02/08 12:13:30;;;;;;;;;;;21.50;30.30;;;;;;466163;254;2111;-39
2022/02/08 12:28:06;;;;;;;;;;;21.60;30.20;;;;;;466532;254;1318;-39
2022/02/08 12:30:19;;;;;;;;;;;21.50;30.20;;;;;;465382;255;2092;-39
2022/02/08 12:32:01;;;;;;;;;;;21.50;30.20;;;;;;465396;255;2150;-39
2022/02/08 12:34:05;;;;;;;;;;;21.50;30.10;;;;;;466315;254;2188;-39
2022/02/08 12:36:16;;;;;;;;;;;21.50;30.20;;;;;;466464;254;2297;-39
2022/02/08 12:50:32;;;;;;;;;;;21.50;30.10;;;;;;466669;254;1231;-39
2022/02/08 12:53:11;;;;;;;;;;;21.40;30.10;;;;;;465878;255;2139;-39
2022/02/08 12:54:42;;;;;;;;;;;21.40;30.10;;;;;;466263;255;1889;-39
2022/02/08 12:56:48;;;;;;;;;;;21.40;30.00;;;;;;467123;254;2213;-39
2022/02/08 12:59:02;;;;;;;;;;;21.50;30.00;;;;;;466426;254;2075;-39
2022/02/08 13:01:09;;;;;;;;;;;21.50;30.00;;;;;;466356;254;2207;-39
2022/02/08 13:06:02;;;;;;;;;;;21.60;30.00;;;;;;461421;253;1234;-39
2022/02/08 14:02:36;;;;;;;;;;;22.00;29.20;;;;;;466856;254;1266;-39
2022/02/08 14:05:13;;;;;;;;;;;22.00;29.20;;;;;;466173;255;2128;-39
2022/02/08 14:06:53;;;;;;;;;;;22.00;29.20;;;;;;465733;255;1914;-39
2022/02/08 14:14:15;;;;;;;;;;;22.00;29.30;;;;;;462955;253;1366;-39
2022/02/08 14:16:19;;;;;;;;;;;22.00;29.30;;;;;;466068;254;1994;-39
2022/02/08 14:18:37;;;;;;;;;;;21.90;29.30;;;;;;466427;254;1960;-38
2022/02/08 14:20:42;;;;;;;;;;;21.90;29.30;;;;;;465915;255;1425;-39
2022/02/08 14:22:46;;;;;;;;;;;22.00;29.30;;;;;;466128;254;1793;-39
2022/02/08 14:24:49;;;;;;;;;;;22.00;29.30;;;;;;465911;254;2160;-39
2022/02/08 14:29:23;;;;;;;;;;;22.00;29.30;;;;;;466663;254;1230;-39
2022/02/08 14:31:22;;;;;;;;;;;21.90;29.30;;;;;;465481;254;2238;-39
2022/02/08 14:33:24;;;;;;;;;;;22.00;29.30;;;;;;466021;254;2232;-39
2022/02/08 15:00:07;;;;;;;;;;;21.90;29.30;;;;;;466776;254;1141;-39
2022/02/08 15:06:35;;;;;;;;;;;21.90;29.30;;;;;;474915;250;1293;-39
2022/02/08 15:08:27;;;;;;;;;;;21.90;29.30;;;;;;474114;250;1390;-39
2022/02/08 15:10:34;;;;;;;;;;;21.90;29.30;;;;;;474857;250;2362;-39
2022/02/08 15:12:30;;;;;;;;;;;21.90;29.30;;;;;;475035;250;2315;-39
2022/02/08 15:14:30;;;;;;;;;;;21.90;29.30;;;;;;474590;247;2197;-39
2022/02/08 15:16:35;;;;;;;;;;;21.90;29.30;;;;;;474687;250;1480;-39
2022/02/08 15:18:32;;;;;;;;;;;21.90;29.30;;;;;;474688;250;2015;-39
2022/02/08 15:20:33;;;;;;;;;;;21.90;29.30;;;;;;475131;250;1767;-39
2022/02/08 15:22:34;;;;;;;;;;;21.80;29.30;;;;;;475091;250;1231;-39
2022/02/08 15:24:35;;;;;;;;;;;21.90;29.30;;;;;;475027;251;1450;-39
2022/02/08 15:26:42;;;;;;;;;;;21.90;29.30;;;;;;475001;250;1274;-39
2022/02/08 15:28:39;;;;;;;;;;;21.80;29.30;;;;;;474571;250;2189;-39
2022/02/08 15:30:41;;;;;;;;;;;21.80;29.30;;;;;;475286;250;2158;-39
2022/02/08 15:32:41;;;;;;;;;;;21.90;29.30;;;;;;475101;251;2944;-39
2022/02/08 15:34:43;;;;;;;;;;;21.80;29.30;;;;;;475035;250;1326;-39
2022/02/08 15:36:44;;;;;;;;;;;21.90;29.30;;;;;;475097;250;1338;-39